Time;durP1;ratioP1;P1;durP2;ratioP2;P2;SDS_P1;SDS_P2;PMS_P1;PMS_P2;Temp;Humidity;BMP_temperature;BMP_pressure;BME280_temperature;BME280_humidity;BME280_pressure;Samples;Min_cycle;Max_cycle;Signal;HPM_P1;HPM_P2
2023/07/03 00:01:58;;;;;;;15.87;10.47;;;20.00;70.80;;;;;;10519245;28;20709;-79
2023/07/03 00:07:01;;;;;;;14.30;10.63;;;19.90;70.40;;;;;;10522591;28;20357;-78
2023/07/03 00:12:04;;;;;;;14.50;11.13;;;19.90;72.90;;;;;;10523383;28;20261;-78
2023/07/03 00:17:07;;;;;;;14.93;10.73;;;20.00;73.30;;;;;;10513282;28;20197;-78
2023/07/03 00:22:10;;;;;;;17.63;11.97;;;20.00;72.60;;;;;;10522824;28;20233;-77
2023/07/03 00:27:12;;;;;;;14.97;11.00;;;20.00;72.60;;;;;;10518940;28;20220;-79
2023/07/03 00:32:15;;;;;;;15.40;10.90;;;20.10;72.80;;;;;;10499439;28;20205;-78
2023/07/03 00:37:18;;;;;;;17.17;11.50;;;20.10;73.00;;;;;;10509747;28;20232;-77
2023/07/03 00:42:23;;;;;;;18.20;12.83;;;20.10;73.50;;;;;;10507237;28;20282;-79
2023/07/03 00:47:28;;;;;;;14.13;11.43;;;20.20;73.40;;;;;;10523843;28;20204;-78
2023/07/03 00:52:31;;;;;;;15.20;12.87;;;20.20;73.00;;;;;;10527658;28;20221;-78
2023/07/03 00:57:34;;;;;;;13.53;10.63;;;20.30;70.30;;;;;;10530828;28;20230;-78
2023/07/03 01:02:40;;;;;;;15.50;12.73;;;20.30;71.80;;;;;;10523695;28;20229;-77
2023/07/03 01:07:44;;;;;;;17.80;11.70;;;20.40;70.30;;;;;;10520408;28;20224;-78
2023/07/03 01:12:51;;;;;;;14.60;12.57;;;20.40;71.00;;;;;;10520529;28;20224;-78
2023/07/03 01:17:55;;;;;;;19.67;12.27;;;20.50;71.70;;;;;;10522198;28;20595;-78
2023/07/03 01:23:05;;;;;;;14.90;11.60;;;20.50;69.80;;;;;;10520727;28;20251;-79
2023/07/03 01:28:12;;;;;;;15.50;12.00;;;20.50;71.70;;;;;;10522031;28;20209;-78
2023/07/03 01:33:18;;;;;;;14.17;11.20;;;20.60;71.70;;;;;;10513107;28;20220;-78
2023/07/03 01:38:22;;;;;;;14.87;11.40;;;20.60;71.70;;;;;;10516463;28;20629;-79
2023/07/03 01:43:27;;;;;;;14.10;12.30;;;20.70;70.90;;;;;;10530759;28;20300;-78
2023/07/03 01:48:32;;;;;;;13.27;11.10;;;20.70;70.60;;;;;;10546513;28;20200;-78
2023/07/03 01:53:45;;;;;;;16.83;10.80;;;20.70;70.30;;;;;;10527807;28;20229;-79
2023/07/03 01:58:51;;;;;;;17.10;11.47;;;20.70;71.50;;;;;;10525358;28;20220;-78
2023/07/03 02:03:57;;;;;;;15.13;10.47;;;20.70;72.00;;;;;;10529149;28;20236;-78
2023/07/03 02:08:59;;;;;;;14.70;11.53;;;20.70;70.70;;;;;;10530013;28;20220;-78
2023/07/03 02:14:03;;;;;;;14.50;11.30;;;20.80;70.70;;;;;;10528830;28;20304;-78
2023/07/03 02:19:06;;;;;;;16.80;11.50;;;20.80;70.50;;;;;;10525445;28;20216;-78
2023/07/03 02:24:09;;;;;;;14.80;10.87;;;20.80;70.20;;;;;;10527655;28;20232;-78
2023/07/03 02:29:13;;;;;;;13.40;11.10;;;20.80;69.60;;;;;;10522703;28;20224;-78
2023/07/03 02:34:15;;;;;;;13.77;10.97;;;20.80;70.70;;;;;;10519114;28;20220;-78
2023/07/03 02:39:17;;;;;;;13.17;10.33;;;20.90;70.30;;;;;;10523515;28;20283;-78
2023/07/03 02:44:20;;;;;;;13.60;10.97;;;20.90;71.10;;;;;;10527330;28;20227;-77
2023/07/03 02:49:24;;;;;;;16.00;11.87;;;20.90;70.90;;;;;;10524719;28;20276;-78
2023/07/03 02:54:26;;;;;;;14.70;11.43;;;21.00;71.20;;;;;;10526429;28;20238;-76
2023/07/03 02:59:30;;;;;;;14.23;10.63;;;21.00;70.30;;;;;;10521310;28;20219;-77
2023/07/03 03:04:34;;;;;;;16.47;12.23;;;21.00;69.20;;;;;;10529637;28;20283;-78
2023/07/03 03:09:36;;;;;;;16.10;11.40;;;21.00;70.20;;;;;;10527312;28;20255;-77
2023/07/03 03:14:40;;;;;;;14.30;10.90;;;21.00;70.30;;;;;;10523106;28;20235;-78
2023/07/03 03:19:42;;;;;;;14.20;11.20;;;21.00;67.40;;;;;;10522857;28;20231;-79
2023/07/03 03:24:45;;;;;;;12.40;10.60;;;21.00;69.10;;;;;;10506474;28;20248;-78
2023/07/03 03:29:50;;;;;;;14.63;10.67;;;21.00;68.00;;;;;;10506189;28;20207;-78
2023/07/03 03:34:53;;;;;;;13.57;9.80;;;20.90;69.60;;;;;;10519758;28;20290;-78
2023/07/03 03:39:56;;;;;;;14.77;10.17;;;20.90;68.70;;;;;;10521389;28;20732;-77
2023/07/03 03:45:00;;;;;;;16.80;12.70;;;21.00;70.00;;;;;;10525704;28;20281;-78
2023/07/03 03:50:03;;;;;;;15.10;11.07;;;21.00;69.10;;;;;;10516761;28;20193;-77
2023/07/03 03:55:09;;;;;;;12.10;9.97;;;21.00;70.30;;;;;;10523119;28;20282;-78
2023/07/03 04:00:16;;;;;;;16.00;10.20;;;21.00;70.60;;;;;;10526023;28;20224;-78
2023/07/03 04:05:20;;;;;;;13.67;9.63;;;21.00;68.60;;;;;;10519087;28;20256;-78
2023/07/03 04:10:22;;;;;;;13.27;10.00;;;21.00;68.80;;;;;;10518730;28;20205;-78
2023/07/03 04:15:25;;;;;;;17.57;10.17;;;20.90;68.80;;;;;;10513976;28;20217;-77
2023/07/03 04:20:27;;;;;;;12.97;9.70;;;20.90;69.90;;;;;;10518527;28;20217;-79
2023/07/03 04:25:30;;;;;;;17.27;10.53;;;21.00;69.20;;;;;;10523049;28;20249;-78
2023/07/03 04:30:34;;;;;;;14.17;10.70;;;21.00;68.30;;;;;;10518894;28;20198;-78
2023/07/03 04:35:37;;;;;;;17.77;9.77;;;21.00;69.00;;;;;;10522725;28;20229;-77
2023/07/03 04:40:39;;;;;;;11.97;10.53;;;21.00;69.40;;;;;;10517728;28;20233;-79
2023/07/03 04:45:46;;;;;;;14.77;10.20;;;21.00;70.60;;;;;;10521062;28;20213;-78
2023/07/03 04:50:49;;;;;;;10.90;9.17;;;21.00;69.40;;;;;;10509474;28;20193;-78
2023/07/03 04:55:51;;;;;;;11.93;10.30;;;21.00;70.70;;;;;;10510880;28;20217;-78
2023/07/03 05:00:55;;;;;;;17.17;10.40;;;21.10;69.60;;;;;;10513114;28;20239;-79
2023/07/03 05:05:57;;;;;;;13.83;9.20;;;21.10;70.10;;;;;;10529357;22;20240;-80
2023/07/03 05:10:59;;;;;;;11.87;9.30;;;21.10;70.10;;;;;;10518264;28;20652;-79
2023/07/03 05:16:03;;;;;;;14.37;9.10;;;21.20;70.00;;;;;;10499298;28;20227;-80
2023/07/03 05:21:06;;;;;;;12.30;9.40;;;21.30;70.80;;;;;;10500863;28;20232;-81
2023/07/03 05:26:08;;;;;;;12.80;9.50;;;21.30;69.50;;;;;;10502641;28;20252;-82
2023/07/03 05:31:11;;;;;;;14.87;10.00;;;21.40;68.80;;;;;;10534319;28;20578;-79
2023/07/03 05:36:14;;;;;;;11.33;8.90;;;21.50;70.70;;;;;;10525879;28;20291;-79
2023/07/03 05:41:16;;;;;;;11.53;10.17;;;21.60;70.60;;;;;;10500322;28;20248;-81
2023/07/03 05:46:19;;;;;;;13.20;10.10;;;21.70;70.10;;;;;;10516523;28;20217;-82
2023/07/03 05:51:22;;;;;;;11.67;8.90;;;21.80;68.20;;;;;;10518347;28;20221;-80
2023/07/03 05:56:26;;;;;;;10.80;9.43;;;21.80;69.50;;;;;;10518256;28;20224;-80
2023/07/03 06:01:30;;;;;;;12.60;8.40;;;21.90;69.40;;;;;;10506719;28;20744;-82
2023/07/03 06:06:32;;;;;;;10.07;7.83;;;22.10;69.40;;;;;;10519705;28;20263;-80
2023/07/03 06:11:34;;;;;;;10.73;9.03;;;22.20;69.50;;;;;;10525988;28;20219;-81
2023/07/03 06:16:38;;;;;;;12.17;8.10;;;22.40;67.60;;;;;;10523078;28;20224;-82
2023/07/03 06:21:41;;;;;;;13.77;9.07;;;22.50;67.90;;;;;;10517153;28;20239;-80
2023/07/03 06:26:44;;;;;;;13.10;8.33;;;22.60;67.50;;;;;;10517511;28;20246;-81
2023/07/03 06:31:48;;;;;;;11.90;7.90;;;22.70;66.90;;;;;;10519092;28;20220;-83
2023/07/03 06:36:50;;;;;;;11.77;8.43;;;22.80;67.40;;;;;;10519005;28;20218;-80
2023/07/03 06:41:52;;;;;;;8.90;6.93;;;22.80;67.70;;;;;;10516990;28;20263;-81
2023/07/03 06:46:56;;;;;;;11.80;8.40;;;22.90;67.30;;;;;;10541142;28;20633;-82
2023/07/03 06:51:58;;;;;;;9.50;7.40;;;22.90;67.10;;;;;;10521261;28;20697;-83
2023/07/03 06:57:01;;;;;;;10.70;7.10;;;22.90;67.20;;;;;;10520576;28;20649;-78
2023/07/03 07:02:05;;;;;;;11.17;7.60;;;22.80;67.60;;;;;;10502715;28;20221;-82
2023/07/03 07:07:07;;;;;;;8.93;7.33;;;22.80;67.40;;;;;;10536080;28;20235;-82
2023/07/03 07:12:09;;;;;;;11.07;7.97;;;22.80;66.50;;;;;;10532726;28;20205;-79
2023/07/03 07:17:13;;;;;;;9.00;7.53;;;22.80;67.60;;;;;;10505611;28;20306;-80
2023/07/03 07:22:15;;;;;;;8.63;6.67;;;23.00;67.20;;;;;;10520441;28;20247;-82
2023/07/03 07:27:17;;;;;;;14.83;7.67;;;23.10;66.50;;;;;;10520590;28;20251;-82
2023/07/03 07:32:21;;;;;;;11.93;8.20;;;23.20;65.70;;;;;;10517837;28;20267;-81
2023/07/03 07:37:23;;;;;;;10.10;7.47;;;23.10;66.70;;;;;;10524058;28;20197;-82
2023/07/03 07:42:25;;;;;;;11.23;8.13;;;23.10;66.70;;;;;;10521872;28;20220;-82
2023/07/03 07:47:30;;;;;;;11.57;9.13;;;23.00;66.60;;;;;;10521792;28;20197;-83
2023/07/03 07:52:32;;;;;;;10.03;8.73;;;22.80;68.00;;;;;;10506443;28;20263;-81
2023/07/03 07:57:34;;;;;;;9.40;7.30;;;22.80;68.50;;;;;;10506303;28;20208;-82
2023/07/03 08:02:37;;;;;;;7.07;6.10;;;22.70;70.00;;;;;;10517840;28;20227;-83
2023/07/03 08:07:40;;;;;;;10.93;7.77;;;22.70;68.20;;;;;;10521145;28;20204;-83
2023/07/03 08:12:42;;;;;;;12.10;7.90;;;22.80;69.40;;;;;;10528449;28;20634;-81
2023/07/03 08:17:46;;;;;;;11.17;7.53;;;23.00;67.70;;;;;;10528741;28;20256;-83
2023/07/03 08:22:48;;;;;;;9.80;8.10;;;23.30;66.80;;;;;;10500517;28;20320;-80
2023/07/03 08:27:50;;;;;;;9.63;7.30;;;23.60;67.70;;;;;;10530298;28;20212;-80
2023/07/03 08:32:53;;;;;;;19.67;9.00;;;23.90;67.00;;;;;;10524294;28;20245;-82
2023/07/03 08:37:56;;;;;;;16.57;8.07;;;24.00;66.90;;;;;;10481149;28;20197;-83
2023/07/03 08:43:00;;;;;;;15.33;8.13;;;24.00;67.70;;;;;;10488505;28;20237;-80
2023/07/03 08:48:08;;;;;;;11.83;7.63;;;24.30;67.60;;;;;;10499222;28;20228;-83
2023/07/03 08:53:13;;;;;;;13.07;8.17;;;24.30;67.70;;;;;;10531759;28;20227;-82
2023/07/03 08:58:15;;;;;;;14.87;8.20;;;24.70;69.20;;;;;;10509106;28;20243;-80
2023/07/03 09:03:27;;;;;;;13.87;9.47;;;25.80;66.30;;;;;;10507041;28;20225;-83
2023/07/03 09:08:36;;;;;;;12.90;7.87;;;26.30;64.40;;;;;;10515924;28;20208;-80
2023/07/03 09:13:41;;;;;;;10.37;7.53;;;26.20;62.60;;;;;;10533167;28;20271;-82
2023/07/03 09:18:50;;;;;;;8.40;7.20;;;25.80;63.80;;;;;;10499941;28;20198;-82
2023/07/03 09:23:57;;;;;;;9.20;7.67;;;25.60;64.70;;;;;;10532264;28;20227;-83
2023/07/03 09:29:01;;;;;;;12.57;7.60;;;26.40;64.40;;;;;;10506681;28;20205;-82
2023/07/03 09:34:05;;;;;;;10.33;7.43;;;27.10;60.70;;;;;;10535788;28;20225;-79
2023/07/03 09:39:10;;;;;;;8.30;6.47;;;27.20;60.30;;;;;;10544678;28;20255;-81
2023/07/03 09:44:13;;;;;;;10.17;7.00;;;27.20;60.60;;;;;;10522052;28;20254;-83
2023/07/03 09:49:20;;;;;;;10.70;7.20;;;27.80;59.90;;;;;;10517249;28;20223;-83
2023/07/03 09:54:26;;;;;;;8.63;6.20;;;29.10;58.40;;;;;;10503983;28;20213;-83
2023/07/03 09:59:31;;;;;;;9.27;6.23;;;30.70;54.90;;;;;;10519547;28;20235;-82
2023/07/03 10:04:44;;;;;;;11.27;6.70;;;31.40;53.40;;;;;;10526946;28;20217;-83
2023/07/03 10:10:10;;;;;;;7.73;5.60;;;31.10;53.30;;;;;;10516408;28;20200;-83
2023/07/03 10:15:18;;;;;;;9.17;5.43;;;30.90;52.80;;;;;;10533377;28;20566;-83
2023/07/03 10:20:25;;;;;;;7.17;5.43;;;30.20;52.30;;;;;;10504048;28;20221;-83
2023/07/03 10:25:35;;;;;;;6.70;5.30;;;30.00;52.30;;;;;;10532260;28;20689;-80
2023/07/03 10:30:40;;;;;;;6.77;5.30;;;30.00;50.60;;;;;;10518551;28;20192;-84
2023/07/03 10:35:44;;;;;;;9.00;5.30;;;29.10;50.50;;;;;;10524004;28;20256;-80
2023/07/03 10:40:55;;;;;;;9.93;4.97;;;28.30;52.70;;;;;;10518776;28;20245;-84
2023/07/03 10:45:58;;;;;;;6.20;5.10;;;27.80;54.10;;;;;;10529257;28;20741;-82
2023/07/03 10:51:09;;;;;;;5.57;4.03;;;27.40;54.10;;;;;;10528207;28;20666;-83
2023/07/03 10:56:17;;;;;;;6.50;4.50;;;27.10;51.50;;;;;;10528140;28;20229;-83
2023/07/03 11:01:24;;;;;;;7.03;4.20;;;26.90;53.60;;;;;;10532205;28;20779;-82
2023/07/03 11:06:34;;;;;;;5.20;3.93;;;27.00;53.70;;;;;;10524320;28;20225;-83
2023/07/03 11:11:45;;;;;;;4.13;3.73;;;27.00;54.50;;;;;;10531467;28;20184;-84
2023/07/03 11:17:04;;;;;;;5.57;3.57;;;26.90;54.60;;;;;;10500791;28;20673;-83
2023/07/03 11:22:13;;;;;;;6.80;3.60;;;26.90;55.00;;;;;;10510054;28;20266;-82
2023/07/03 11:27:27;;;;;;;4.97;3.80;;;26.90;54.20;;;;;;10512225;28;20228;-83
2023/07/03 11:32:33;;;;;;;5.20;3.93;;;26.80;55.30;;;;;;10528284;28;20228;-83
2023/07/03 11:37:45;;;;;;;4.17;3.77;;;26.60;55.10;;;;;;10509567;28;20197;-83
2023/07/03 11:42:47;;;;;;;5.27;4.40;;;26.50;55.10;;;;;;10492885;28;20307;-84
2023/07/03 11:47:49;;;;;;;4.67;3.77;;;26.30;55.40;;;;;;10534670;28;20201;-83
2023/07/03 11:52:53;;;;;;;5.60;4.10;;;26.30;55.10;;;;;;10506401;28;20243;-83
2023/07/03 11:57:57;;;;;;;5.23;4.40;;;26.40;55.50;;;;;;10492190;28;20212;-83
2023/07/03 12:03:00;;;;;;;6.70;4.80;;;26.30;55.50;;;;;;10526630;28;20306;-81
2023/07/03 12:08:04;;;;;;;10.23;5.47;;;26.40;57.30;;;;;;10531412;28;20205;-83
2023/07/03 12:13:29;;;;;;;8.60;5.53;;;26.50;57.80;;;;;;10523957;28;20217;-82
2023/07/03 12:18:32;;;;;;;9.57;5.57;;;26.40;59.00;;;;;;10522011;28;20205;-80
2023/07/03 12:23:38;;;;;;;8.53;5.10;;;26.30;58.90;;;;;;10535872;28;20217;-82
2023/07/03 12:28:41;;;;;;;10.00;5.30;;;26.10;58.90;;;;;;10525244;28;20695;-82
2023/07/03 12:33:50;;;;;;;8.30;4.57;;;26.00;59.50;;;;;;10510315;28;20209;-83
2023/07/03 12:38:55;;;;;;;6.10;5.00;;;26.00;59.10;;;;;;10518813;28;20578;-83
2023/07/03 12:43:58;;;;;;;8.90;4.80;;;25.70;59.10;;;;;;10522142;28;20258;-82
2023/07/03 12:49:09;;;;;;;4.40;4.00;;;25.40;59.90;;;;;;10528866;28;20248;-83
2023/07/03 12:54:13;;;;;;;5.93;4.50;;;25.30;60.50;;;;;;10488444;28;20208;-80
2023/07/03 12:59:18;;;;;;;6.70;3.80;;;25.20;59.90;;;;;;10521402;28;20207;-83
2023/07/03 13:04:28;;;;;;;3.87;3.47;;;25.10;60.00;;;;;;10524267;28;20254;-80
2023/07/03 13:09:33;;;;;;;4.57;3.77;;;25.20;59.50;;;;;;10521396;28;20397;-83
2023/07/03 13:14:35;;;;;;;7.50;3.63;;;25.10;59.70;;;;;;10522966;28;20650;-80
2023/07/03 13:19:38;;;;;;;4.63;2.90;;;25.10;60.30;;;;;;10499724;28;20197;-83
2023/07/03 13:24:46;;;;;;;3.90;3.40;;;25.20;59.50;;;;;;10507629;28;20228;-83
2023/07/03 13:29:48;;;;;;;3.20;2.90;;;25.30;59.40;;;;;;10522863;28;20334;-84
2023/07/03 13:34:57;;;;;;;5.50;3.13;;;25.50;57.60;;;;;;10499552;28;20312;-83
2023/07/03 13:40:00;;;;;;;4.10;3.70;;;25.60;58.20;;;;;;10522814;28;20216;-83
2023/07/03 13:45:03;;;;;;;3.80;2.73;;;25.70;57.40;;;;;;10507798;28;20285;-83
2023/07/03 13:50:06;;;;;;;3.53;3.23;;;25.80;58.90;;;;;;10521414;28;20201;-83
2023/07/03 13:55:11;;;;;;;3.67;2.47;;;25.90;58.00;;;;;;10536203;28;20224;-83
2023/07/03 14:00:14;;;;;;;3.57;2.70;;;25.80;57.10;;;;;;10527399;28;20209;-83
2023/07/03 14:05:18;;;;;;;5.13;2.40;;;25.80;56.20;;;;;;10536671;28;20228;-83
2023/07/03 14:10:21;;;;;;;3.53;2.90;;;25.70;56.70;;;;;;10511823;28;20227;-83
2023/07/03 14:15:35;;;;;;;2.27;2.03;;;25.50;57.40;;;;;;10525651;28;20235;-82
2023/07/03 14:20:47;;;;;;;2.40;2.10;;;25.40;56.60;;;;;;10509526;28;20204;-82
2023/07/03 14:25:50;;;;;;;1.80;1.70;;;25.30;57.10;;;;;;10494660;28;20225;-82
2023/07/03 14:30:56;;;;;;;4.33;2.47;;;25.30;57.30;;;;;;10505089;28;20204;-82
2023/07/03 14:35:58;;;;;;;2.20;2.00;;;25.40;57.20;;;;;;10529403;28;20246;-82
2023/07/03 14:41:05;;;;;;;2.10;1.90;;;25.40;57.30;;;;;;10490893;28;20217;-83
2023/07/03 14:46:08;;;;;;;3.10;2.33;;;25.30;57.40;;;;;;10507159;28;20242;-81
2023/07/03 14:51:10;;;;;;;3.73;2.30;;;25.30;58.50;;;;;;10506035;28;20201;-81
2023/07/03 14:56:14;;;;;;;2.50;1.80;;;25.40;58.60;;;;;;10517593;28;20241;-82
2023/07/03 15:01:16;;;;;;;2.37;1.93;;;25.60;57.80;;;;;;10510810;28;20282;-80
2023/07/03 15:06:18;;;;;;;2.27;2.07;;;25.70;56.60;;;;;;10531799;28;20228;-81
2023/07/03 15:11:22;;;;;;;1.63;1.53;;;25.80;57.80;;;;;;10527781;28;20223;-82
2023/07/03 15:16:27;;;;;;;3.30;2.60;;;25.80;56.40;;;;;;10526622;28;20217;-83
2023/07/03 15:21:29;;;;;;;1.70;1.60;;;25.80;56.90;;;;;;10533891;28;20231;-83
2023/07/03 15:26:33;;;;;;;2.13;1.37;;;25.80;56.70;;;;;;10521605;28;20240;-83
2023/07/03 15:31:35;;;;;;;1.70;1.60;;;25.70;56.00;;;;;;10507605;28;20657;-80
2023/07/03 15:36:38;;;;;;;1.53;1.43;;;25.50;56.00;;;;;;10527751;28;20759;-80
2023/07/03 15:41:41;;;;;;;1.83;1.73;;;25.30;57.10;;;;;;10525226;28;20216;-81
2023/07/03 15:46:43;;;;;;;1.13;1.03;;;25.10;57.80;;;;;;10525857;28;20273;-83
2023/07/03 15:51:48;;;;;;;1.80;1.43;;;25.00;58.20;;;;;;10504832;28;20223;-80
2023/07/03 15:56:52;;;;;;;1.80;1.57;;;25.10;57.10;;;;;;10535953;28;20224;-82
2023/07/03 16:01:55;;;;;;;1.30;1.20;;;25.20;56.40;;;;;;10525179;28;20594;-79
2023/07/03 16:06:58;;;;;;;1.70;1.60;;;25.10;56.70;;;;;;10524237;28;20759;-81
2023/07/03 16:12:02;;;;;;;1.30;1.20;;;25.10;57.10;;;;;;10517765;28;20193;-83
2023/07/03 16:17:04;;;;;;;1.60;1.50;;;25.00;57.70;;;;;;10516946;28;20696;-81
2023/07/03 16:22:07;;;;;;;2.70;1.43;;;24.90;58.00;;;;;;10522565;28;20609;-83
2023/07/03 16:27:10;;;;;;;1.40;1.30;;;24.80;58.00;;;;;;10521535;28;21018;-83
2023/07/03 16:32:12;;;;;;;1.50;1.40;;;24.80;59.00;;;;;;10525899;28;20227;-82
2023/07/03 16:37:14;;;;;;;1.80;1.53;;;24.80;59.20;;;;;;10518013;28;20295;-81
2023/07/03 16:42:18;;;;;;;1.63;1.53;;;24.90;59.60;;;;;;10522621;28;20225;-82
2023/07/03 16:47:20;;;;;;;1.43;1.37;;;25.00;58.60;;;;;;10508256;28;20204;-83
2023/07/03 16:52:22;;;;;;;3.23;1.30;;;25.00;58.70;;;;;;10500269;28;20197;-83
2023/07/03 16:57:26;;;;;;;1.73;1.37;;;25.00;59.90;;;;;;10504431;28;20202;-80
2023/07/03 17:02:28;;;;;;;1.83;1.70;;;25.10;60.50;;;;;;10500109;28;20687;-83
2023/07/03 17:07:30;;;;;;;1.83;1.70;;;25.10;59.70;;;;;;10519205;28;20202;-83
2023/07/03 17:12:34;;;;;;;2.00;1.73;;;25.10;60.70;;;;;;10510384;28;20232;-82
2023/07/03 17:17:36;;;;;;;2.07;1.83;;;25.10;57.40;;;;;;10521479;28;20387;-81
2023/07/03 17:22:38;;;;;;;1.90;1.80;;;25.00;58.10;;;;;;10516261;28;20235;-80
2023/07/03 17:27:42;;;;;;;2.13;1.90;;;24.80;58.20;;;;;;10524399;28;20606;-81
2023/07/03 17:32:44;;;;;;;1.90;1.80;;;24.70;60.10;;;;;;10502455;28;20303;-82
2023/07/03 17:37:46;;;;;;;2.33;1.93;;;24.50;59.90;;;;;;10519719;28;20207;-81
2023/07/03 17:42:50;;;;;;;4.33;1.93;;;24.40;61.10;;;;;;10506196;28;20227;-82
2023/07/03 17:47:52;;;;;;;2.27;2.10;;;24.30;60.60;;;;;;10525369;28;20669;-83
2023/07/03 17:52:54;;;;;;;1.90;1.80;;;24.30;61.90;;;;;;10538051;28;20220;-82
2023/07/03 17:57:58;;;;;;;1.70;1.60;;;24.30;61.50;;;;;;10520883;28;20258;-84
2023/07/03 18:03:00;;;;;;;2.57;2.37;;;24.20;62.30;;;;;;10518360;28;20217;-81
2023/07/03 18:08:02;;;;;;;1.80;1.70;;;24.20;60.90;;;;;;10519707;28;20625;-83
2023/07/03 18:13:06;;;;;;;3.27;2.20;;;24.20;62.00;;;;;;10521297;28;20232;-83
2023/07/03 18:18:08;;;;;;;2.47;1.63;;;24.20;65.90;;;;;;10520284;28;20212;-81
2023/07/03 18:23:10;;;;;;;2.20;2.10;;;24.20;63.60;;;;;;10518648;28;20245;-81
2023/07/03 18:28:14;;;;;;;1.90;1.80;;;24.20;64.80;;;;;;10509142;28;20201;-83
2023/07/03 18:33:16;;;;;;;3.23;2.33;;;24.10;66.10;;;;;;10502073;28;20231;-82
2023/07/03 18:38:18;;;;;;;2.70;2.50;;;24.10;63.60;;;;;;10519030;28;20188;-81
2023/07/03 18:43:23;;;;;;;2.40;2.20;;;24.10;66.50;;;;;;10525523;28;20575;-83
2023/07/03 18:48:25;;;;;;;2.17;2.07;;;24.00;64.80;;;;;;10528292;28;20729;-84
2023/07/03 18:53:28;;;;;;;2.50;2.23;;;24.00;65.00;;;;;;10538003;28;20227;-83
2023/07/03 18:58:32;;;;;;;2.30;2.20;;;24.00;62.90;;;;;;10534287;28;20201;-82
2023/07/03 19:03:34;;;;;;;2.37;2.17;;;24.00;63.00;;;;;;10527330;28;20350;-83
2023/07/03 19:08:36;;;;;;;3.80;2.60;;;23.90;63.30;;;;;;10532421;28;20204;-82
2023/07/03 19:13:40;;;;;;;2.40;2.20;;;23.90;63.80;;;;;;10523530;28;20450;-80
2023/07/03 19:18:42;;;;;;;2.03;1.93;;;23.80;64.50;;;;;;10514499;28;20274;-82
2023/07/03 19:23:44;;;;;;;19.33;17.63;;;23.80;64.90;;;;;;10507145;28;20236;-83
2023/07/03 19:28:49;;;;;;;4.63;4.23;;;23.80;66.40;;;;;;10532031;28;20204;-82
2023/07/03 19:33:51;;;;;;;2.70;2.50;;;23.80;65.30;;;;;;10523057;28;20220;-83
2023/07/03 19:38:53;;;;;;;3.03;2.00;;;23.70;66.40;;;;;;10532589;28;20211;-82
2023/07/03 19:43:57;;;;;;;2.60;2.40;;;23.70;66.10;;;;;;10523176;28;20754;-81
2023/07/03 19:49:00;;;;;;;2.50;2.30;;;23.60;67.00;;;;;;10525894;28;20231;-82
2023/07/03 19:54:03;;;;;;;2.60;2.40;;;23.50;67.30;;;;;;10514696;28;20228;-83
2023/07/03 19:59:08;;;;;;;3.00;2.57;;;23.50;67.80;;;;;;10499088;28;20259;-82
2023/07/03 20:04:11;;;;;;;3.30;2.87;;;23.50;69.30;;;;;;10520059;28;20221;-83
2023/07/03 20:09:17;;;;;;;2.90;2.63;;;23.50;69.40;;;;;;10522266;28;20705;-83
2023/07/03 20:14:24;;;;;;;2.37;2.20;;;23.40;69.70;;;;;;10519360;28;20228;-81
2023/07/03 20:19:26;;;;;;;2.90;2.43;;;23.40;69.30;;;;;;10523939;28;20201;-82
2023/07/03 20:24:28;;;;;;;3.67;2.50;;;23.30;72.00;;;;;;10517360;28;20224;-83
2023/07/03 20:29:34;;;;;;;2.50;2.23;;;23.30;72.20;;;;;;10523263;28;20272;-81
2023/07/03 20:34:36;;;;;;;2.50;2.30;;;23.20;70.70;;;;;;10504956;28;20288;-82
2023/07/03 20:39:38;;;;;;;2.70;2.50;;;23.20;70.70;;;;;;10524628;28;20209;-83
2023/07/03 20:44:44;;;;;;;2.80;2.60;;;23.10;70.60;;;;;;10514953;28;20247;-82
2023/07/03 20:49:46;;;;;;;3.40;2.70;;;23.00;70.00;;;;;;10526833;28;20232;-83
2023/07/03 20:55:04;;;;;;;2.53;2.27;;;23.00;72.10;;;;;;10532968;28;20242;-82
2023/07/03 21:00:12;;;;;;;2.80;2.60;;;22.90;71.00;;;;;;10501579;28;20204;-82
2023/07/03 21:05:14;;;;;;;2.37;2.20;;;22.90;72.40;;;;;;10516697;28;20256;-82
2023/07/03 21:10:17;;;;;;;2.83;2.63;;;22.80;71.90;;;;;;10506356;28;20217;-82
2023/07/03 21:15:22;;;;;;;2.43;2.23;;;22.80;73.20;;;;;;10525759;28;20695;-83
2023/07/03 21:20:27;;;;;;;2.30;2.10;;;22.70;73.30;;;;;;10513095;28;20209;-83
2023/07/03 21:25:29;;;;;;;4.57;2.80;;;22.70;73.40;;;;;;10512640;28;20239;-82
2023/07/03 21:30:33;;;;;;;2.30;2.10;;;22.60;73.90;;;;;;10529423;28;20299;-82
2023/07/03 21:35:35;;;;;;;2.40;2.30;;;22.50;73.90;;;;;;10487304;28;20247;-83
2023/07/03 21:40:40;;;;;;;2.77;2.20;;;22.50;73.90;;;;;;10510231;28;20197;-81
2023/07/03 21:45:43;;;;;;;3.17;2.53;;;22.50;74.10;;;;;;10512086;28;20239;-82
2023/07/03 21:50:52;;;;;;;3.00;2.50;;;22.50;74.10;;;;;;10495041;28;20205;-83
2023/07/03 21:56:04;;;;;;;3.30;3.00;;;22.50;74.80;;;;;;10529470;28;20221;-82
2023/07/03 22:01:15;;;;;;;2.63;2.43;;;22.50;75.20;;;;;;10526858;28;20235;-83
2023/07/03 22:06:17;;;;;;;3.40;2.40;;;22.50;75.00;;;;;;10524926;28;20248;-81
2023/07/03 22:11:20;;;;;;;2.87;2.40;;;22.40;74.80;;;;;;10516283;28;20259;-83
2023/07/03 22:16:24;;;;;;;2.80;2.60;;;22.40;75.20;;;;;;10514677;28;20225;-83
2023/07/03 22:21:26;;;;;;;2.90;2.63;;;22.40;76.00;;;;;;10533562;28;20196;-83
2023/07/03 22:26:28;;;;;;;3.03;2.83;;;22.40;74.80;;;;;;10535422;28;20240;-81
2023/07/03 22:31:32;;;;;;;3.67;3.00;;;22.40;75.30;;;;;;10523059;28;20288;-82
2023/07/03 22:36:35;;;;;;;2.90;2.70;;;22.30;76.20;;;;;;10490174;28;20220;-82
2023/07/03 22:41:37;;;;;;;3.03;2.83;;;22.30;76.40;;;;;;10485044;28;20216;-80
2023/07/03 22:46:40;;;;;;;2.93;2.70;;;22.30;77.60;;;;;;10528913;28;20212;-82
2023/07/03 22:51:42;;;;;;;3.10;2.90;;;22.30;77.30;;;;;;10508745;28;20208;-82
2023/07/03 22:56:44;;;;;;;3.70;2.80;;;22.30;77.90;;;;;;10490049;28;20225;-82
2023/07/03 23:01:48;;;;;;;2.80;2.60;;;22.20;78.60;;;;;;10529741;28;20251;-81
2023/07/03 23:06:50;;;;;;;2.40;2.20;;;22.10;78.80;;;;;;10518480;28;20224;-82
2023/07/03 23:11:53;;;;;;;2.80;2.60;;;22.00;79.20;;;;;;10519874;28;20687;-82
2023/07/03 23:16:58;;;;;;;2.83;2.40;;;22.00;79.20;;;;;;10501473;28;20217;-81
2023/07/03 23:22:00;;;;;;;3.40;2.40;;;21.90;80.20;;;;;;10529250;28;20193;-81
2023/07/03 23:27:02;;;;;;;3.27;3.00;;;21.70;80.40;;;;;;10523130;28;20752;-81
2023/07/03 23:32:07;;;;;;;3.63;2.60;;;21.70;81.30;;;;;;10523250;28;20201;-82
2023/07/03 23:37:09;;;;;;;2.47;2.27;;;21.70;81.10;;;;;;10529184;28;20278;-82
2023/07/03 23:42:12;;;;;;;2.60;2.40;;;21.60;81.50;;;;;;10526336;28;20227;-82
2023/07/03 23:47:16;;;;;;;2.37;2.27;;;21.60;80.80;;;;;;10519041;28;20260;-80
2023/07/03 23:52:18;;;;;;;7.33;2.87;;;21.50;80.80;;;;;;10532128;28;20205;-83
2023/07/03 23:57:21;;;;;;;2.47;2.27;;;21.40;80.90;;;;;;10505596;28;20579;-82
